createdAt,value
2022-10-11T06:18:16.564Z,16.70
2022-10-11T06:21:05.589Z,17.00
2022-10-11T06:23:46.551Z,17.00
2022-10-11T06:26:33.594Z,17.10
2022-10-11T06:29:13.527Z,17.10
2022-10-11T06:32:00.613Z,17.20
2022-10-11T06:34:40.534Z,17.20
2022-10-11T06:37:21.057Z,17.30
2022-10-11T06:40:07.541Z,17.30
2022-10-11T06:42:55.525Z,17.40
2022-10-11T06:45:35.616Z,17.50
2022-10-11T06:48:22.554Z,17.50
2022-10-11T06:51:10.559Z,17.50
2022-10-11T06:54:02.538Z,17.60
2022-10-11T06:56:49.584Z,17.60
2022-10-11T06:59:29.750Z,17.60
2022-10-11T07:02:16.537Z,17.70
2022-10-11T07:05:10.562Z,17.70
2022-10-11T07:07:57.636Z,17.80
2022-10-11T07:10:37.557Z,17.80
2022-10-11T07:13:24.585Z,17.90
2022-10-11T07:16:19.613Z,17.90
2022-10-11T07:19:08.613Z,17.90
2022-10-11T07:21:48.545Z,18.00
2022-10-11T07:24:29.166Z,18.00
2022-10-11T07:27:15.532Z,18.10
2022-10-11T07:30:02.599Z,18.10
2022-10-11T07:32:42.555Z,18.20
2022-10-11T07:35:23.037Z,18.30
2022-10-11T07:38:09.560Z,18.40
2022-10-11T07:40:49.662Z,18.40
2022-10-11T07:43:36.566Z,18.60
2022-10-11T07:46:24.584Z,18.60
2022-10-11T07:49:04.619Z,18.70
2022-10-11T07:51:52.559Z,18.80
2022-10-11T07:54:33.631Z,19.00
2022-10-11T07:57:21.621Z,19.30
2022-10-11T08:00:01.608Z,19.50
2022-10-11T08:02:51.563Z,19.70
2022-10-11T08:05:31.732Z,19.80
2022-10-11T08:08:18.570Z,20.00
2022-10-11T08:11:05.556Z,20.10
2022-10-11T08:13:52.632Z,20.50
2022-10-11T08:16:39.565Z,20.90
2022-10-11T08:19:26.546Z,21.40
2022-10-11T08:22:07.182Z,22.00
2022-10-11T08:24:53.549Z,22.60
2022-10-11T08:27:40.621Z,23.10
2022-10-11T08:30:20.575Z,23.50
2022-10-11T08:33:08.720Z,24.00
2022-10-11T08:35:55.575Z,24.30
2022-10-11T08:38:44.614Z,24.40
2022-10-11T08:41:36.589Z,24.50
2022-10-11T08:45:08.952Z,24.80
2022-10-11T08:47:58.569Z,25.10
2022-10-11T08:50:46.734Z,25.50
2022-10-11T08:53:49.574Z,25.80
2022-10-11T08:56:39.927Z,26.00
2022-10-11T08:59:19.554Z,26.20
2022-10-11T09:03:02.880Z,26.30
2022-10-11T09:05:41.599Z,26.50
2022-10-11T09:08:48.557Z,26.70
2022-10-11T09:11:56.620Z,26.90
2022-10-11T09:15:02.601Z,27.10
2022-10-11T09:18:16.582Z,27.20
2022-10-11T09:21:19.576Z,27.30
2022-10-11T09:24:17.608Z,27.50
2022-10-11T09:27:11.589Z,27.60
2022-10-11T09:29:54.685Z,27.60
2022-10-11T09:32:46.574Z,27.70
2022-10-11T09:35:35.578Z,27.80
2022-10-11T09:38:34.607Z,27.90
2022-10-11T09:41:23.565Z,28.00
2022-10-11T09:44:13.658Z,28.10
2022-10-11T09:46:55.603Z,28.20
2022-10-11T09:49:40.305Z,28.30
2022-10-11T09:52:32.601Z,28.30
2022-10-11T09:55:40.708Z,28.40
2022-10-11T09:58:46.587Z,28.40
2022-10-11T10:01:33.675Z,28.50
2022-10-11T10:04:17.574Z,28.50
2022-10-11T10:07:12.810Z,28.50
2022-10-11T10:09:59.569Z,28.10
2022-10-11T10:12:46.630Z,27.90
2022-10-11T10:15:26.576Z,27.50
2022-10-11T10:18:14.295Z,27.40
2022-10-11T10:20:59.577Z,27.20
2022-10-11T10:23:47.600Z,27.10
2022-10-11T10:26:39.577Z,27.10
2022-10-11T10:29:27.572Z,27.30
2022-10-11T10:32:28.091Z,27.50
2022-10-11T10:35:39.581Z,27.70
2022-10-11T10:38:33.696Z,27.80
2022-10-11T10:41:19.593Z,27.90
2022-10-11T10:44:07.585Z,27.70
2022-10-11T10:47:16.639Z,27.30
2022-10-11T10:50:24.571Z,26.90
2022-10-11T10:53:31.641Z,26.50
2022-10-11T10:57:02.603Z,26.20
2022-10-11T11:00:05.588Z,25.90
2022-10-11T11:03:11.590Z,25.60
2022-10-11T11:06:13.644Z,25.40
2022-10-11T11:09:09.597Z,25.20
2022-10-11T11:12:24.602Z,25.10
2022-10-11T11:15:37.951Z,25.00
2022-10-11T11:18:47.602Z,24.90
2022-10-11T11:21:49.767Z,24.70
2022-10-11T11:25:03.644Z,24.70
2022-10-11T11:28:02.660Z,24.60
2022-10-11T11:31:05.831Z,24.50
2022-10-11T11:34:06.646Z,24.40
2022-10-11T11:37:02.612Z,24.30
2022-10-11T11:39:55.597Z,24.20
2022-10-11T11:42:50.691Z,24.10
2022-10-11T11:46:02.603Z,24.10
2022-10-11T11:48:50.641Z,24.00
2022-10-11T11:51:52.638Z,23.90
2022-10-11T11:54:47.985Z,23.80
2022-10-11T11:58:13.592Z,23.80
2022-10-11T12:01:21.586Z,23.80
2022-10-11T12:04:05.665Z,23.70
2022-10-11T12:07:22.398Z,23.70
2022-10-11T12:10:29.863Z,23.80
2022-10-11T12:13:36.638Z,24.00
2022-10-11T12:16:19.667Z,24.20
2022-10-11T12:19:09.606Z,24.30
2022-10-11T12:21:51.662Z,24.40
2022-10-11T12:25:01.607Z,24.30
2022-10-11T12:27:56.591Z,24.30
2022-10-11T12:30:53.616Z,24.10
2022-10-11T12:33:39.647Z,24.20
2022-10-11T12:36:38.631Z,24.30
2022-10-11T12:39:34.585Z,24.20
2022-10-11T12:42:26.690Z,24.20
2022-10-11T12:45:25.599Z,24.10
2022-10-11T12:48:27.441Z,24.00
2022-10-11T12:51:36.617Z,23.90
2022-10-11T12:54:59.612Z,23.80
2022-10-11T12:58:15.675Z,23.80
2022-10-11T13:00:58.696Z,23.80
2022-10-11T13:03:48.611Z,23.90
2022-10-11T13:06:48.608Z,24.00
2022-10-11T13:09:48.934Z,24.00
2022-10-11T13:12:30.621Z,24.00
2022-10-11T13:15:18.201Z,24.00
2022-10-11T13:18:04.618Z,23.80
2022-10-11T13:20:51.712Z,23.80
2022-10-11T13:23:36.622Z,23.70
2022-10-11T13:26:17.165Z,23.70
2022-10-11T13:29:03.621Z,23.60
2022-10-11T13:31:54.734Z,23.60
2022-10-11T13:34:35.633Z,23.60
2022-10-11T13:37:26.717Z,23.50
2022-10-11T13:40:06.620Z,23.40
2022-10-11T13:42:48.667Z,23.50
2022-10-11T13:45:38.622Z,23.40
2022-10-11T13:48:30.770Z,23.40
2022-10-11T13:51:20.614Z,23.40
2022-10-11T13:54:14.109Z,23.30
2022-10-11T13:56:59.618Z,23.30
2022-10-11T13:59:49.629Z,23.30
2022-10-11T14:02:31.720Z,23.20
2022-10-11T14:05:33.749Z,23.20
2022-10-11T14:08:49.760Z,23.10
2022-10-11T14:11:42.669Z,23.10
2022-10-11T14:14:44.635Z,23.10
2022-10-11T14:17:57.726Z,23.00
2022-10-11T14:20:46.639Z,23.00
2022-10-11T14:23:26.753Z,23.00
2022-10-11T14:26:18.656Z,22.90
2022-10-11T14:29:07.867Z,22.90
2022-10-11T14:31:55.637Z,22.90
2022-10-11T14:34:43.631Z,22.90
2022-10-11T14:37:24.544Z,22.90
2022-10-11T14:40:11.642Z,22.90
2022-10-11T14:42:59.910Z,22.80
2022-10-11T14:45:39.650Z,22.80
2022-10-11T14:48:50.358Z,22.80
2022-10-11T14:51:30.653Z,22.80
2022-10-11T14:54:11.526Z,22.80
2022-10-11T14:56:59.629Z,22.70
2022-10-11T14:59:40.354Z,22.70
2022-10-11T15:02:26.646Z,22.70
2022-10-11T15:05:07.578Z,22.70
2022-10-11T15:07:54.641Z,22.70
2022-10-11T15:10:47.702Z,22.70
2022-10-11T15:13:28.642Z,22.70
2022-10-11T15:16:18.625Z,22.70
2022-10-11T15:19:05.676Z,22.60
2022-10-11T15:21:45.651Z,22.60
2022-10-11T15:24:27.879Z,22.60
2022-10-11T15:27:14.652Z,22.60
2022-10-11T15:29:55.261Z,22.60
2022-10-11T15:32:41.625Z,22.60
2022-10-11T15:35:31.686Z,22.60
2022-10-11T15:38:18.641Z,22.50
2022-10-11T15:40:59.639Z,22.50
2022-10-11T15:43:47.695Z,22.50
2022-10-11T15:46:34.698Z,22.50
2022-10-11T15:49:19.645Z,22.50
2022-10-11T15:52:06.730Z,22.50
2022-10-11T15:54:46.649Z,22.50
2022-10-11T15:57:33.708Z,22.40
2022-10-11T16:00:17.577Z,22.40
2022-10-11T16:03:07.658Z,22.40
2022-10-11T16:05:48.740Z,22.30
2022-10-11T16:08:35.647Z,22.30
2022-10-11T16:11:16.715Z,22.30
2022-10-11T16:14:03.630Z,22.30
2022-10-11T16:16:43.723Z,22.30
2022-10-11T16:19:30.642Z,22.30
2022-10-11T16:22:10.745Z,22.30
2022-10-11T16:24:57.666Z,22.20
2022-10-11T16:27:38.697Z,22.20
2022-10-11T16:30:26.660Z,22.20
2022-10-11T16:33:13.632Z,22.20
2022-10-11T16:36:20.694Z,22.10
2022-10-11T16:39:00.637Z,22.10
2022-10-11T16:41:48.625Z,22.10
2022-10-11T16:44:29.725Z,22.10
2022-10-11T16:47:16.639Z,22.00
2022-10-11T16:49:56.823Z,22.00
2022-10-11T16:52:43.660Z,22.00
2022-10-11T16:55:30.665Z,22.00
2022-10-11T16:58:11.187Z,22.00
2022-10-11T17:00:57.707Z,21.90
2022-10-11T17:03:44.725Z,21.90
2022-10-11T17:06:25.663Z,21.90
2022-10-11T17:09:06.901Z,21.90
2022-10-11T17:11:54.654Z,21.80
2022-10-11T17:14:35.593Z,21.80
2022-10-11T17:17:23.650Z,21.80
2022-10-11T17:20:10.666Z,21.70
2022-10-11T17:22:57.670Z,21.70
2022-10-11T17:25:49.649Z,21.70
2022-10-11T17:28:29.813Z,21.70
2022-10-11T17:31:16.663Z,21.60
2022-10-11T17:33:57.703Z,21.60
2022-10-11T17:36:44.674Z,21.60
2022-10-11T17:39:27.747Z,21.50
2022-10-11T17:42:14.656Z,21.50
2022-10-11T17:44:54.720Z,21.50
2022-10-11T17:47:41.654Z,21.50
2022-10-11T17:50:21.714Z,21.40
2022-10-11T17:53:08.639Z,21.40
2022-10-11T17:55:50.381Z,21.40
2022-10-11T17:58:36.669Z,21.40
2022-10-11T18:01:19.872Z,21.30
2022-10-11T18:04:09.654Z,21.30
2022-10-11T18:06:58.675Z,21.30
2022-10-11T18:09:45.719Z,21.30
2022-10-11T18:12:25.638Z,21.20
2022-10-11T18:15:12.885Z,21.20
2022-10-11T18:18:06.651Z,21.20
2022-10-11T18:20:55.749Z,21.20
2022-10-11T18:23:35.653Z,21.10
2022-10-11T18:26:30.442Z,21.10
2022-10-11T18:29:11.659Z,21.10
2022-10-11T18:31:58.749Z,21.10
2022-10-11T18:34:38.667Z,21.00
2022-10-11T18:37:25.701Z,21.00
2022-10-11T18:40:05.661Z,21.00
2022-10-11T18:42:52.696Z,21.00
2022-10-11T18:45:32.645Z,20.90
2022-10-11T18:48:19.736Z,20.90
2022-10-11T18:51:09.113Z,20.90
2022-10-11T18:53:50.369Z,20.80
2022-10-11T18:56:36.659Z,20.90
2022-10-11T18:59:17.350Z,20.80
2022-10-11T19:02:03.669Z,20.80
2022-10-11T19:04:44.136Z,20.80
2022-10-11T19:07:30.668Z,20.80
2022-10-11T19:10:17.701Z,20.70
2022-10-11T19:12:57.677Z,20.70
2022-10-11T19:15:44.713Z,20.70
2022-10-11T19:18:31.683Z,20.70
2022-10-11T19:21:14.714Z,20.70
2022-10-11T19:24:02.655Z,20.60
2022-10-11T19:26:52.708Z,20.60
2022-10-11T19:29:40.688Z,20.60
2022-10-11T19:32:20.785Z,20.60
2022-10-11T19:35:07.669Z,20.60
2022-10-11T19:37:47.728Z,20.50
2022-10-11T19:40:34.685Z,20.50
2022-10-11T19:43:14.718Z,20.50
2022-10-11T19:46:09.711Z,20.50
2022-10-11T19:48:50.775Z,20.50
2022-10-11T19:51:41.696Z,20.50
2022-10-11T19:54:22.765Z,20.40
2022-10-11T19:57:09.661Z,20.40
2022-10-11T19:59:49.809Z,20.40
2022-10-11T20:02:36.677Z,20.40
2022-10-11T20:05:16.730Z,20.30
2022-10-11T20:08:03.673Z,20.20
2022-10-11T20:10:50.677Z,20.10
2022-10-11T20:13:37.722Z,20.00
2022-10-11T20:16:20.668Z,19.90
2022-10-11T20:19:14.674Z,19.80
2022-10-11T20:22:01.675Z,19.70
2022-10-11T20:24:48.686Z,19.60
2022-10-11T20:27:31.814Z,19.60
2022-10-11T20:30:18.985Z,19.50
2022-10-11T20:33:05.742Z,19.40
2022-10-11T20:35:45.690Z,19.40
2022-10-11T20:38:33.725Z,19.30
2022-10-11T20:41:18.670Z,19.20
2022-10-11T20:44:01.274Z,19.20
2022-10-11T20:46:50.680Z,19.10
2022-10-11T20:49:37.750Z,19.10
2022-10-11T20:52:24.710Z,19.00
2022-10-11T20:55:05.030Z,19.00
2022-10-11T20:57:51.690Z,18.90
2022-10-11T21:00:32.310Z,18.90
2022-10-11T21:03:19.907Z,18.80
2022-10-11T21:06:00.238Z,18.80
2022-10-11T21:08:47.672Z,18.70
2022-10-11T21:11:37.695Z,18.70
2022-10-11T21:14:24.669Z,18.60
2022-10-11T21:17:11.762Z,18.60
2022-10-11T21:19:58.670Z,18.50
2022-10-11T21:22:42.002Z,18.50
2022-10-11T21:25:28.693Z,18.50
2022-10-11T21:28:15.788Z,18.40
2022-10-11T21:31:08.685Z,18.40
2022-10-11T21:33:48.745Z,18.40
2022-10-11T21:36:35.704Z,18.30
2022-10-11T21:39:16.241Z,18.30
2022-10-11T21:42:02.706Z,18.20
2022-10-11T21:44:43.529Z,18.20
2022-10-11T21:47:31.487Z,18.20
2022-10-11T21:50:12.761Z,18.10
2022-10-11T21:52:59.676Z,18.10
2022-10-11T21:55:46.718Z,18.10
2022-10-11T21:58:34.760Z,18.10
2022-10-11T22:01:14.755Z,18.00
2022-10-11T22:03:55.234Z,18.00
2022-10-11T22:06:41.685Z,18.00
2022-10-11T22:09:28.694Z,18.00
2022-10-11T22:12:09.720Z,18.00
2022-10-11T22:14:56.678Z,17.90
2022-10-11T22:17:36.762Z,17.90
2022-10-11T22:20:23.687Z,17.90
2022-10-11T22:23:03.797Z,17.80
2022-10-11T22:25:51.673Z,17.80
2022-10-11T22:28:31.846Z,17.80
2022-10-11T22:31:19.751Z,17.80
2022-10-11T22:34:07.774Z,17.80
2022-10-11T22:36:47.744Z,17.80
2022-10-11T22:39:35.674Z,17.80
2022-10-11T22:42:26.873Z,17.80
2022-10-11T22:45:15.729Z,17.70
2022-10-11T22:47:55.837Z,17.70
2022-10-11T22:50:42.785Z,17.80
2022-10-11T22:53:22.705Z,17.70
2022-10-11T22:56:03.514Z,17.70
2022-10-11T22:58:49.695Z,17.70
2022-10-11T23:01:36.744Z,17.70
2022-10-11T23:04:16.677Z,17.70
2022-10-11T23:07:05.171Z,17.60
2022-10-11T23:09:44.730Z,17.60
2022-10-11T23:12:31.695Z,17.70
2022-10-11T23:15:11.759Z,17.60
2022-10-11T23:18:05.686Z,17.60
2022-10-11T23:20:52.801Z,17.60
2022-10-11T23:23:32.686Z,17.60
2022-10-11T23:26:23.828Z,17.60
2022-10-11T23:29:03.704Z,17.60
2022-10-11T23:31:46.249Z,17.60
2022-10-11T23:34:32.695Z,17.60
2022-10-11T23:37:19.686Z,17.60
2022-10-11T23:39:59.750Z,17.60
2022-10-11T23:42:46.685Z,17.50
2022-10-11T23:45:26.772Z,17.50
2022-10-11T23:48:13.685Z,17.50
2022-10-11T23:51:00.688Z,17.50
2022-10-11T23:53:48.801Z,17.50
2022-10-11T23:56:28.682Z,17.50
2022-10-11T23:59:09.446Z,17.40
